sensor_id;sensor_type;location;lat;lon;timestamp;P1;durP1;ratioP1;P2;durP2;ratioP2
7563;SDS011;3823;53.586;10.040;2024-01-30T00:01:02;14.35;;;9.73;;
7563;SDS011;3823;53.586;10.040;2024-01-30T00:03:27;14.68;;;9.15;;
7563;SDS011;3823;53.586;10.040;2024-01-30T00:05:54;10.13;;;8.10;;
7563;SDS011;3823;53.586;10.040;2024-01-30T00:08:20;13.45;;;8.52;;
7563;SDS011;3823;53.586;10.040;2024-01-30T00:10:46;10.02;;;8.50;;
7563;SDS011;3823;53.586;10.040;2024-01-30T00:13:11;12.20;;;8.32;;
7563;SDS011;3823;53.586;10.040;2024-01-30T00:15:38;12.35;;;8.43;;
7563;SDS011;3823;53.586;10.040;2024-01-30T00:18:04;11.18;;;8.32;;
7563;SDS011;3823;53.586;10.040;2024-01-30T00:20:30;11.75;;;8.80;;
7563;SDS011;3823;53.586;10.040;2024-01-30T00:22:55;13.50;;;8.43;;
7563;SDS011;3823;53.586;10.040;2024-01-30T00:25:21;10.85;;;8.32;;
7563;SDS011;3823;53.586;10.040;2024-01-30T00:27:46;14.15;;;8.20;;
7563;SDS011;3823;53.586;10.040;2024-01-30T00:30:12;11.32;;;8.27;;
7563;SDS011;3823;53.586;10.040;2024-01-30T00:32:38;12.85;;;9.05;;
7563;SDS011;3823;53.586;10.040;2024-01-30T00:35:03;12.00;;;8.65;;
7563;SDS011;3823;53.586;10.040;2024-01-30T00:37:29;9.48;;;7.75;;
7563;SDS011;3823;53.586;10.040;2024-01-30T00:39:56;10.82;;;7.65;;
7563;SDS011;3823;53.586;10.040;2024-01-30T00:42:22;12.20;;;9.25;;
7563;SDS011;3823;53.586;10.040;2024-01-30T00:44:48;11.52;;;8.30;;
7563;SDS011;3823;53.586;10.040;2024-01-30T00:47:14;14.45;;;8.45;;
7563;SDS011;3823;53.586;10.040;2024-01-30T00:49:40;17.45;;;9.18;;
7563;SDS011;3823;53.586;10.040;2024-01-30T00:52:05;12.35;;;8.30;;
7563;SDS011;3823;53.586;10.040;2024-01-30T00:54:31;11.88;;;8.07;;
7563;SDS011;3823;53.586;10.040;2024-01-30T00:56:57;10.00;;;7.60;;
7563;SDS011;3823;53.586;10.040;2024-01-30T00:59:22;9.07;;;7.40;;
7563;SDS011;3823;53.586;10.040;2024-01-30T01:01:48;11.07;;;8.77;;
7563;SDS011;3823;53.586;10.040;2024-01-30T01:04:13;13.27;;;8.30;;
7563;SDS011;3823;53.586;10.040;2024-01-30T01:06:39;12.07;;;8.85;;
7563;SDS011;3823;53.586;10.040;2024-01-30T01:09:07;14.63;;;8.73;;
7563;SDS011;3823;53.586;10.040;2024-01-30T01:11:33;11.45;;;8.57;;
7563;SDS011;3823;53.586;10.040;2024-01-30T01:13:58;10.85;;;7.65;;
7563;SDS011;3823;53.586;10.040;2024-01-30T01:16:24;11.43;;;8.50;;
7563;SDS011;3823;53.586;10.040;2024-01-30T01:18:49;11.65;;;8.07;;
7563;SDS011;3823;53.586;10.040;2024-01-30T01:21:15;11.38;;;8.43;;
7563;SDS011;3823;53.586;10.040;2024-01-30T01:23:41;10.80;;;7.35;;
7563;SDS011;3823;53.586;10.040;2024-01-30T01:26:07;10.98;;;8.32;;
7563;SDS011;3823;53.586;10.040;2024-01-30T01:28:34;9.60;;;8.13;;
7563;SDS011;3823;53.586;10.040;2024-01-30T01:31:00;13.23;;;8.60;;
7563;SDS011;3823;53.586;10.040;2024-01-30T01:33:30;10.80;;;8.20;;
7563;SDS011;3823;53.586;10.040;2024-01-30T01:35:57;12.52;;;8.13;;
7563;SDS011;3823;53.586;10.040;2024-01-30T01:38:23;11.48;;;8.23;;
7563;SDS011;3823;53.586;10.040;2024-01-30T01:40:49;11.05;;;7.97;;
7563;SDS011;3823;53.586;10.040;2024-01-30T01:43:15;12.15;;;8.05;;
7563;SDS011;3823;53.586;10.040;2024-01-30T01:45:40;9.82;;;7.60;;
7563;SDS011;3823;53.586;10.040;2024-01-30T01:48:06;11.75;;;7.82;;
7563;SDS011;3823;53.586;10.040;2024-01-30T01:50:33;13.75;;;7.57;;
7563;SDS011;3823;53.586;10.040;2024-01-30T01:52:59;10.77;;;8.93;;
7563;SDS011;3823;53.586;10.040;2024-01-30T01:55:24;11.40;;;7.60;;
7563;SDS011;3823;53.586;10.040;2024-01-30T01:57:53;11.90;;;8.48;;
7563;SDS011;3823;53.586;10.040;2024-01-30T02:00:19;11.27;;;8.65;;
7563;SDS011;3823;53.586;10.040;2024-01-30T02:02:45;9.90;;;8.02;;
7563;SDS011;3823;53.586;10.040;2024-01-30T02:05:12;10.00;;;7.85;;
7563;SDS011;3823;53.586;10.040;2024-01-30T02:07:37;11.52;;;9.27;;
7563;SDS011;3823;53.586;10.040;2024-01-30T02:10:03;9.95;;;8.10;;
7563;SDS011;3823;53.586;10.040;2024-01-30T02:12:29;9.90;;;7.82;;
7563;SDS011;3823;53.586;10.040;2024-01-30T02:14:55;11.32;;;7.50;;
7563;SDS011;3823;53.586;10.040;2024-01-30T02:17:20;14.45;;;8.68;;
7563;SDS011;3823;53.586;10.040;2024-01-30T02:19:48;9.85;;;7.88;;
7563;SDS011;3823;53.586;10.040;2024-01-30T02:22:13;13.80;;;9.15;;
7563;SDS011;3823;53.586;10.040;2024-01-30T02:24:39;12.55;;;8.65;;
7563;SDS011;3823;53.586;10.040;2024-01-30T02:27:05;17.67;;;8.82;;
7563;SDS011;3823;53.586;10.040;2024-01-30T02:29:31;13.70;;;7.88;;
7563;SDS011;3823;53.586;10.040;2024-01-30T02:31:56;9.68;;;7.30;;
7563;SDS011;3823;53.586;10.040;2024-01-30T02:34:23;9.15;;;8.02;;
7563;SDS011;3823;53.586;10.040;2024-01-30T02:36:49;10.65;;;7.70;;
7563;SDS011;3823;53.586;10.040;2024-01-30T02:39:14;8.70;;;7.63;;
7563;SDS011;3823;53.586;10.040;2024-01-30T02:41:40;11.75;;;8.93;;
7563;SDS011;3823;53.586;10.040;2024-01-30T02:44:05;9.40;;;7.35;;
7563;SDS011;3823;53.586;10.040;2024-01-30T02:46:31;20.25;;;8.50;;
7563;SDS011;3823;53.586;10.040;2024-01-30T02:48:56;9.95;;;8.25;;
7563;SDS011;3823;53.586;10.040;2024-01-30T02:51:22;15.98;;;8.70;;
7563;SDS011;3823;53.586;10.040;2024-01-30T02:53:48;9.88;;;7.95;;
7563;SDS011;3823;53.586;10.040;2024-01-30T02:56:13;11.30;;;8.15;;
7563;SDS011;3823;53.586;10.040;2024-01-30T02:58:39;11.32;;;7.97;;
7563;SDS011;3823;53.586;10.040;2024-01-30T03:01:05;12.20;;;7.95;;
7563;SDS011;3823;53.586;10.040;2024-01-30T03:03:31;11.82;;;7.97;;
7563;SDS011;3823;53.586;10.040;2024-01-30T03:05:57;14.02;;;8.32;;
7563;SDS011;3823;53.586;10.040;2024-01-30T03:08:23;15.98;;;10.07;;
7563;SDS011;3823;53.586;10.040;2024-01-30T03:10:48;14.10;;;7.93;;
7563;SDS011;3823;53.586;10.040;2024-01-30T03:13:14;10.35;;;7.90;;
7563;SDS011;3823;53.586;10.040;2024-01-30T03:15:39;11.80;;;8.48;;
7563;SDS011;3823;53.586;10.040;2024-01-30T03:18:05;12.35;;;8.77;;
7563;SDS011;3823;53.586;10.040;2024-01-30T03:20:31;11.25;;;8.30;;
7563;SDS011;3823;53.586;10.040;2024-01-30T03:22:56;11.63;;;8.25;;
7563;SDS011;3823;53.586;10.040;2024-01-30T03:25:22;10.25;;;7.57;;
7563;SDS011;3823;53.586;10.040;2024-01-30T03:27:47;15.48;;;9.25;;
7563;SDS011;3823;53.586;10.040;2024-01-30T03:30:13;14.02;;;8.60;;
7563;SDS011;3823;53.586;10.040;2024-01-30T03:32:39;14.10;;;9.02;;
7563;SDS011;3823;53.586;10.040;2024-01-30T03:35:05;10.73;;;9.20;;
7563;SDS011;3823;53.586;10.040;2024-01-30T03:37:30;19.90;;;9.50;;
7563;SDS011;3823;53.586;10.040;2024-01-30T03:39:56;12.23;;;8.55;;
7563;SDS011;3823;53.586;10.040;2024-01-30T03:42:22;12.30;;;8.65;;
7563;SDS011;3823;53.586;10.040;2024-01-30T03:44:47;12.30;;;8.65;;
7563;SDS011;3823;53.586;10.040;2024-01-30T03:47:13;12.45;;;9.38;;
7563;SDS011;3823;53.586;10.040;2024-01-30T03:49:39;14.65;;;9.25;;
7563;SDS011;3823;53.586;10.040;2024-01-30T03:52:05;13.30;;;9.68;;
7563;SDS011;3823;53.586;10.040;2024-01-30T03:54:30;15.30;;;9.63;;
7563;SDS011;3823;53.586;10.040;2024-01-30T03:56:56;14.65;;;9.00;;
7563;SDS011;3823;53.586;10.040;2024-01-30T03:59:21;18.83;;;9.82;;
7563;SDS011;3823;53.586;10.040;2024-01-30T04:01:49;14.55;;;9.88;;
7563;SDS011;3823;53.586;10.040;2024-01-30T04:04:16;11.23;;;8.25;;
7563;SDS011;3823;53.586;10.040;2024-01-30T04:06:42;11.90;;;9.13;;
7563;SDS011;3823;53.586;10.040;2024-01-30T04:09:08;13.15;;;8.77;;
7563;SDS011;3823;53.586;10.040;2024-01-30T04:11:34;13.13;;;9.55;;
7563;SDS011;3823;53.586;10.040;2024-01-30T04:13:59;12.75;;;9.80;;
7563;SDS011;3823;53.586;10.040;2024-01-30T04:16:25;17.60;;;10.38;;
7563;SDS011;3823;53.586;10.040;2024-01-30T04:18:51;16.17;;;9.73;;
7563;SDS011;3823;53.586;10.040;2024-01-30T04:21:17;11.23;;;9.18;;
7563;SDS011;3823;53.586;10.040;2024-01-30T04:23:42;14.48;;;9.55;;
7563;SDS011;3823;53.586;10.040;2024-01-30T04:26:08;15.93;;;9.07;;
7563;SDS011;3823;53.586;10.040;2024-01-30T04:28:34;15.02;;;9.90;;
7563;SDS011;3823;53.586;10.040;2024-01-30T04:30:59;11.90;;;9.40;;
7563;SDS011;3823;53.586;10.040;2024-01-30T04:33:25;13.88;;;9.38;;
7563;SDS011;3823;53.586;10.040;2024-01-30T04:35:50;15.48;;;10.02;;
7563;SDS011;3823;53.586;10.040;2024-01-30T04:38:16;15.77;;;10.80;;
7563;SDS011;3823;53.586;10.040;2024-01-30T04:40:42;14.57;;;9.98;;
7563;SDS011;3823;53.586;10.040;2024-01-30T04:43:08;17.15;;;9.68;;
7563;SDS011;3823;53.586;10.040;2024-01-30T04:45:34;10.48;;;9.25;;
7563;SDS011;3823;53.586;10.040;2024-01-30T04:47:59;15.40;;;9.82;;
7563;SDS011;3823;53.586;10.040;2024-01-30T04:50:25;16.73;;;10.73;;
7563;SDS011;3823;53.586;10.040;2024-01-30T04:52:51;13.07;;;10.77;;
7563;SDS011;3823;53.586;10.040;2024-01-30T04:55:17;13.32;;;10.23;;
7563;SDS011;3823;53.586;10.040;2024-01-30T04:57:45;12.10;;;9.80;;
7563;SDS011;3823;53.586;10.040;2024-01-30T05:00:11;16.77;;;10.73;;
7563;SDS011;3823;53.586;10.040;2024-01-30T05:02:37;17.60;;;10.27;;
7563;SDS011;3823;53.586;10.040;2024-01-30T05:05:03;19.00;;;11.75;;
7563;SDS011;3823;53.586;10.040;2024-01-30T05:07:29;12.23;;;9.65;;
7563;SDS011;3823;53.586;10.040;2024-01-30T05:09:54;14.63;;;11.15;;
7563;SDS011;3823;53.586;10.040;2024-01-30T05:12:20;16.58;;;10.52;;
7563;SDS011;3823;53.586;10.040;2024-01-30T05:14:45;13.57;;;10.90;;
7563;SDS011;3823;53.586;10.040;2024-01-30T05:17:11;13.55;;;10.40;;
7563;SDS011;3823;53.586;10.040;2024-01-30T05:19:38;10.93;;;8.57;;
7563;SDS011;3823;53.586;10.040;2024-01-30T05:22:03;12.52;;;11.20;;
7563;SDS011;3823;53.586;10.040;2024-01-30T05:24:29;21.95;;;10.23;;
7563;SDS011;3823;53.586;10.040;2024-01-30T05:26:55;18.67;;;10.77;;
7563;SDS011;3823;53.586;10.040;2024-01-30T05:29:20;16.50;;;11.10;;
7563;SDS011;3823;53.586;10.040;2024-01-30T05:31:47;12.93;;;10.10;;
7563;SDS011;3823;53.586;10.040;2024-01-30T05:34:12;15.95;;;10.95;;
7563;SDS011;3823;53.586;10.040;2024-01-30T05:36:38;18.77;;;10.82;;
7563;SDS011;3823;53.586;10.040;2024-01-30T05:39:03;15.93;;;10.70;;
7563;SDS011;3823;53.586;10.040;2024-01-30T05:41:29;19.90;;;10.52;;
7563;SDS011;3823;53.586;10.040;2024-01-30T05:43:55;13.63;;;10.40;;
7563;SDS011;3823;53.586;10.040;2024-01-30T05:46:21;19.45;;;10.75;;
7563;SDS011;3823;53.586;10.040;2024-01-30T05:48:47;12.43;;;10.57;;
7563;SDS011;3823;53.586;10.040;2024-01-30T05:51:12;12.40;;;9.43;;
7563;SDS011;3823;53.586;10.040;2024-01-30T05:53:38;21.05;;;11.50;;
7563;SDS011;3823;53.586;10.040;2024-01-30T05:56:04;13.07;;;10.85;;
7563;SDS011;3823;53.586;10.040;2024-01-30T05:58:30;13.70;;;10.85;;
7563;SDS011;3823;53.586;10.040;2024-01-30T06:00:58;13.13;;;11.23;;
7563;SDS011;3823;53.586;10.040;2024-01-30T06:03:24;14.13;;;11.25;;
7563;SDS011;3823;53.586;10.040;2024-01-30T06:05:49;14.50;;;10.63;;
7563;SDS011;3823;53.586;10.040;2024-01-30T06:08:15;15.98;;;11.00;;
7563;SDS011;3823;53.586;10.040;2024-01-30T06:10:41;18.23;;;11.63;;
7563;SDS011;3823;53.586;10.040;2024-01-30T06:13:06;16.15;;;11.63;;
7563;SDS011;3823;53.586;10.040;2024-01-30T06:15:32;14.18;;;11.13;;
7563;SDS011;3823;53.586;10.040;2024-01-30T06:17:58;18.65;;;12.82;;
7563;SDS011;3823;53.586;10.040;2024-01-30T06:20:24;14.52;;;10.13;;
7563;SDS011;3823;53.586;10.040;2024-01-30T06:22:49;17.10;;;11.38;;
7563;SDS011;3823;53.586;10.040;2024-01-30T06:25:15;18.17;;;12.65;;
7563;SDS011;3823;53.586;10.040;2024-01-30T06:27:41;17.98;;;11.52;;
7563;SDS011;3823;53.586;10.040;2024-01-30T06:30:07;16.35;;;12.07;;
7563;SDS011;3823;53.586;10.040;2024-01-30T06:32:33;16.02;;;12.32;;
7563;SDS011;3823;53.586;10.040;2024-01-30T06:35:00;14.60;;;11.02;;
7563;SDS011;3823;53.586;10.040;2024-01-30T06:37:27;16.15;;;11.32;;
7563;SDS011;3823;53.586;10.040;2024-01-30T06:39:52;20.95;;;11.90;;
7563;SDS011;3823;53.586;10.040;2024-01-30T06:42:18;15.27;;;11.20;;
7563;SDS011;3823;53.586;10.040;2024-01-30T06:44:44;17.52;;;12.10;;
7563;SDS011;3823;53.586;10.040;2024-01-30T06:47:10;26.98;;;11.38;;
7563;SDS011;3823;53.586;10.040;2024-01-30T06:49:35;15.90;;;10.98;;
7563;SDS011;3823;53.586;10.040;2024-01-30T06:52:07;16.63;;;11.80;;
7563;SDS011;3823;53.586;10.040;2024-01-30T06:54:33;21.15;;;13.73;;
7563;SDS011;3823;53.586;10.040;2024-01-30T06:56:59;14.45;;;11.38;;
7563;SDS011;3823;53.586;10.040;2024-01-30T06:59:25;17.42;;;13.13;;
7563;SDS011;3823;53.586;10.040;2024-01-30T07:01:50;16.10;;;12.32;;
7563;SDS011;3823;53.586;10.040;2024-01-30T07:04:16;24.17;;;12.85;;
7563;SDS011;3823;53.586;10.040;2024-01-30T07:06:43;15.15;;;11.45;;
7563;SDS011;3823;53.586;10.040;2024-01-30T07:09:08;14.43;;;11.25;;
7563;SDS011;3823;53.586;10.040;2024-01-30T07:11:34;17.92;;;12.88;;
7563;SDS011;3823;53.586;10.040;2024-01-30T07:14:00;16.42;;;11.75;;
7563;SDS011;3823;53.586;10.040;2024-01-30T07:16:28;15.80;;;11.85;;
7563;SDS011;3823;53.586;10.040;2024-01-30T07:18:54;18.50;;;12.10;;
7563;SDS011;3823;53.586;10.040;2024-01-30T07:21:21;14.57;;;12.30;;
7563;SDS011;3823;53.586;10.040;2024-01-30T07:23:50;20.77;;;12.43;;
7563;SDS011;3823;53.586;10.040;2024-01-30T07:26:15;16.30;;;11.95;;
7563;SDS011;3823;53.586;10.040;2024-01-30T07:28:41;27.45;;;14.15;;
7563;SDS011;3823;53.586;10.040;2024-01-30T07:31:06;18.35;;;13.10;;
7563;SDS011;3823;53.586;10.040;2024-01-30T07:33:32;18.98;;;12.88;;
7563;SDS011;3823;53.586;10.040;2024-01-30T07:35:57;21.23;;;13.27;;
7563;SDS011;3823;53.586;10.040;2024-01-30T07:38:23;31.65;;;13.90;;
7563;SDS011;3823;53.586;10.040;2024-01-30T07:40:49;18.42;;;12.40;;
7563;SDS011;3823;53.586;10.040;2024-01-30T07:43:14;17.65;;;12.40;;
7563;SDS011;3823;53.586;10.040;2024-01-30T07:45:40;18.67;;;13.25;;
7563;SDS011;3823;53.586;10.040;2024-01-30T07:48:06;18.60;;;12.40;;
7563;SDS011;3823;53.586;10.040;2024-01-30T07:50:31;26.35;;;14.65;;
7563;SDS011;3823;53.586;10.040;2024-01-30T07:52:58;22.42;;;12.75;;
7563;SDS011;3823;53.586;10.040;2024-01-30T07:58:30;21.42;;;12.85;;
7563;SDS011;3823;53.586;10.040;2024-01-30T08:00:56;17.08;;;11.40;;
7563;SDS011;3823;53.586;10.040;2024-01-30T08:03:23;16.92;;;13.52;;
7563;SDS011;3823;53.586;10.040;2024-01-30T08:05:49;19.42;;;12.88;;
7563;SDS011;3823;53.586;10.040;2024-01-30T08:08:14;20.90;;;13.60;;
7563;SDS011;3823;53.586;10.040;2024-01-30T08:10:40;24.45;;;14.45;;
7563;SDS011;3823;53.586;10.040;2024-01-30T08:13:06;20.20;;;13.90;;
7563;SDS011;3823;53.586;10.040;2024-01-30T08:15:33;18.17;;;13.13;;
7563;SDS011;3823;53.586;10.040;2024-01-30T08:17:58;20.38;;;13.43;;
7563;SDS011;3823;53.586;10.040;2024-01-30T08:20:24;19.60;;;12.82;;
7563;SDS011;3823;53.586;10.040;2024-01-30T08:22:50;22.80;;;14.63;;
7563;SDS011;3823;53.586;10.040;2024-01-30T08:25:16;21.23;;;13.73;;
7563;SDS011;3823;53.586;10.040;2024-01-30T08:27:41;21.65;;;12.77;;
7563;SDS011;3823;53.586;10.040;2024-01-30T08:30:07;21.05;;;13.65;;
7563;SDS011;3823;53.586;10.040;2024-01-30T08:32:33;19.42;;;13.60;;
7563;SDS011;3823;53.586;10.040;2024-01-30T08:34:59;23.13;;;13.40;;
7563;SDS011;3823;53.586;10.040;2024-01-30T08:37:25;21.67;;;12.88;;
7563;SDS011;3823;53.586;10.040;2024-01-30T08:39:50;24.45;;;14.45;;
7563;SDS011;3823;53.586;10.040;2024-01-30T08:42:16;21.02;;;14.55;;
7563;SDS011;3823;53.586;10.040;2024-01-30T08:44:47;21.52;;;13.02;;
7563;SDS011;3823;53.586;10.040;2024-01-30T08:47:14;18.67;;;14.27;;
7563;SDS011;3823;53.586;10.040;2024-01-30T08:49:41;17.52;;;12.07;;
7563;SDS011;3823;53.586;10.040;2024-01-30T08:52:09;18.67;;;13.10;;
7563;SDS011;3823;53.586;10.040;2024-01-30T08:54:35;22.67;;;15.13;;
7563;SDS011;3823;53.586;10.040;2024-01-30T08:57:00;21.13;;;13.82;;
7563;SDS011;3823;53.586;10.040;2024-01-30T08:59:27;20.90;;;15.13;;
7563;SDS011;3823;53.586;10.040;2024-01-30T09:01:52;21.60;;;14.48;;
7563;SDS011;3823;53.586;10.040;2024-01-30T09:04:20;19.98;;;14.23;;
7563;SDS011;3823;53.586;10.040;2024-01-30T09:06:48;23.88;;;15.02;;
7563;SDS011;3823;53.586;10.040;2024-01-30T09:09:14;25.67;;;13.80;;
7563;SDS011;3823;53.586;10.040;2024-01-30T09:11:40;20.60;;;15.15;;
7563;SDS011;3823;53.586;10.040;2024-01-30T09:14:06;20.27;;;14.02;;
7563;SDS011;3823;53.586;10.040;2024-01-30T09:16:31;19.95;;;13.68;;
7563;SDS011;3823;53.586;10.040;2024-01-30T09:18:57;22.23;;;13.82;;
7563;SDS011;3823;53.586;10.040;2024-01-30T09:21:22;20.73;;;14.10;;
7563;SDS011;3823;53.586;10.040;2024-01-30T09:23:48;24.80;;;14.15;;
7563;SDS011;3823;53.586;10.040;2024-01-30T09:26:14;19.40;;;13.32;;
7563;SDS011;3823;53.586;10.040;2024-01-30T09:28:39;25.65;;;16.00;;
7563;SDS011;3823;53.586;10.040;2024-01-30T09:31:10;20.42;;;14.80;;
7563;SDS011;3823;53.586;10.040;2024-01-30T09:33:36;25.77;;;16.00;;
7563;SDS011;3823;53.586;10.040;2024-01-30T09:36:02;17.83;;;13.43;;
7563;SDS011;3823;53.586;10.040;2024-01-30T09:38:27;22.30;;;14.02;;
7563;SDS011;3823;53.586;10.040;2024-01-30T09:40:54;20.60;;;13.90;;
7563;SDS011;3823;53.586;10.040;2024-01-30T09:43:23;19.77;;;12.57;;
7563;SDS011;3823;53.586;10.040;2024-01-30T09:45:49;19.60;;;14.43;;
7563;SDS011;3823;53.586;10.040;2024-01-30T09:48:16;20.13;;;14.82;;
7563;SDS011;3823;53.586;10.040;2024-01-30T09:50:41;22.23;;;14.38;;
7563;SDS011;3823;53.586;10.040;2024-01-30T09:53:10;24.70;;;15.05;;
7563;SDS011;3823;53.586;10.040;2024-01-30T09:55:38;24.35;;;14.35;;
7563;SDS011;3823;53.586;10.040;2024-01-30T09:58:07;26.80;;;14.23;;
7563;SDS011;3823;53.586;10.040;2024-01-30T10:00:33;23.08;;;13.82;;
7563;SDS011;3823;53.586;10.040;2024-01-30T10:02:59;21.30;;;14.48;;
7563;SDS011;3823;53.586;10.040;2024-01-30T10:05:26;25.23;;;14.05;;
7563;SDS011;3823;53.586;10.040;2024-01-30T10:07:53;29.70;;;15.50;;
7563;SDS011;3823;53.586;10.040;2024-01-30T10:10:21;25.38;;;14.07;;
7563;SDS011;3823;53.586;10.040;2024-01-30T10:12:49;21.33;;;14.85;;
7563;SDS011;3823;53.586;10.040;2024-01-30T10:15:15;27.85;;;15.43;;
7563;SDS011;3823;53.586;10.040;2024-01-30T10:17:44;21.63;;;13.82;;
7563;SDS011;3823;53.586;10.040;2024-01-30T10:20:10;22.30;;;14.02;;
7563;SDS011;3823;53.586;10.040;2024-01-30T10:22:36;15.75;;;11.65;;
7563;SDS011;3823;53.586;10.040;2024-01-30T10:25:02;16.95;;;12.95;;
7563;SDS011;3823;53.586;10.040;2024-01-30T10:27:27;20.85;;;13.25;;
7563;SDS011;3823;53.586;10.040;2024-01-30T10:29:54;22.02;;;13.95;;
7563;SDS011;3823;53.586;10.040;2024-01-30T10:32:20;21.15;;;13.90;;
7563;SDS011;3823;53.586;10.040;2024-01-30T10:34:46;18.13;;;13.38;;
7563;SDS011;3823;53.586;10.040;2024-01-30T10:37:12;17.98;;;13.48;;
7563;SDS011;3823;53.586;10.040;2024-01-30T10:39:40;20.55;;;13.70;;
7563;SDS011;3823;53.586;10.040;2024-01-30T10:42:10;20.33;;;13.82;;
7563;SDS011;3823;53.586;10.040;2024-01-30T10:44:56;18.70;;;12.50;;
7563;SDS011;3823;53.586;10.040;2024-01-30T10:47:26;20.27;;;14.35;;
7563;SDS011;3823;53.586;10.040;2024-01-30T10:49:56;28.80;;;14.55;;
7563;SDS011;3823;53.586;10.040;2024-01-30T10:52:25;20.92;;;13.18;;
7563;SDS011;3823;53.586;10.040;2024-01-30T10:54:51;20.45;;;13.18;;
7563;SDS011;3823;53.586;10.040;2024-01-30T10:57:19;27.80;;;15.20;;
7563;SDS011;3823;53.586;10.040;2024-01-30T10:59:47;21.67;;;14.15;;
7563;SDS011;3823;53.586;10.040;2024-01-30T11:02:14;18.60;;;14.00;;
7563;SDS011;3823;53.586;10.040;2024-01-30T11:04:40;17.35;;;13.25;;
7563;SDS011;3823;53.586;10.040;2024-01-30T11:07:16;19.02;;;13.23;;
7563;SDS011;3823;53.586;10.040;2024-01-30T11:09:51;19.08;;;13.85;;
7563;SDS011;3823;53.586;10.040;2024-01-30T11:12:25;19.48;;;12.48;;
7563;SDS011;3823;53.586;10.040;2024-01-30T11:15:07;19.08;;;13.30;;
7563;SDS011;3823;53.586;10.040;2024-01-30T11:17:41;19.35;;;12.70;;
7563;SDS011;3823;53.586;10.040;2024-01-30T11:20:27;14.70;;;11.75;;
7563;SDS011;3823;53.586;10.040;2024-01-30T11:22:57;18.88;;;12.48;;
7563;SDS011;3823;53.586;10.040;2024-01-30T11:25:24;19.05;;;12.30;;
7563;SDS011;3823;53.586;10.040;2024-01-30T11:27:51;17.95;;;13.07;;
7563;SDS011;3823;53.586;10.040;2024-01-30T11:33:00;16.63;;;11.40;;
7563;SDS011;3823;53.586;10.040;2024-01-30T11:35:26;18.17;;;12.55;;
7563;SDS011;3823;53.586;10.040;2024-01-30T11:37:52;15.55;;;12.23;;
7563;SDS011;3823;53.586;10.040;2024-01-30T11:40:19;18.17;;;12.20;;
7563;SDS011;3823;53.586;10.040;2024-01-30T11:42:45;22.80;;;13.57;;
7563;SDS011;3823;53.586;10.040;2024-01-30T11:45:12;16.60;;;12.80;;
7563;SDS011;3823;53.586;10.040;2024-01-30T11:47:37;18.95;;;13.05;;
7563;SDS011;3823;53.586;10.040;2024-01-30T11:50:04;19.45;;;14.18;;
7563;SDS011;3823;53.586;10.040;2024-01-30T11:52:31;21.27;;;13.13;;
7563;SDS011;3823;53.586;10.040;2024-01-30T11:55:00;20.02;;;13.07;;
7563;SDS011;3823;53.586;10.040;2024-01-30T11:57:28;19.58;;;13.85;;
7563;SDS011;3823;53.586;10.040;2024-01-30T11:59:54;31.45;;;13.32;;
7563;SDS011;3823;53.586;10.040;2024-01-30T12:02:19;18.30;;;13.57;;
7563;SDS011;3823;53.586;10.040;2024-01-30T12:04:45;20.20;;;12.50;;
7563;SDS011;3823;53.586;10.040;2024-01-30T12:07:11;15.23;;;11.88;;
7563;SDS011;3823;53.586;10.040;2024-01-30T12:09:40;22.35;;;12.73;;
7563;SDS011;3823;53.586;10.040;2024-01-30T12:12:06;26.05;;;12.70;;
7563;SDS011;3823;53.586;10.040;2024-01-30T12:14:36;17.98;;;12.30;;
7563;SDS011;3823;53.586;10.040;2024-01-30T12:17:04;17.95;;;13.10;;
7563;SDS011;3823;53.586;10.040;2024-01-30T12:19:29;23.27;;;14.65;;
7563;SDS011;3823;53.586;10.040;2024-01-30T12:21:58;21.05;;;13.40;;
7563;SDS011;3823;53.586;10.040;2024-01-30T12:24:27;18.10;;;12.80;;
7563;SDS011;3823;53.586;10.040;2024-01-30T12:26:58;18.52;;;12.50;;
7563;SDS011;3823;53.586;10.040;2024-01-30T12:29:24;20.58;;;12.40;;
7563;SDS011;3823;53.586;10.040;2024-01-30T12:31:52;19.00;;;11.65;;
7563;SDS011;3823;53.586;10.040;2024-01-30T12:34:19;23.33;;;12.93;;
7563;SDS011;3823;53.586;10.040;2024-01-30T12:36:46;19.08;;;13.25;;
7563;SDS011;3823;53.586;10.040;2024-01-30T12:39:14;28.33;;;13.25;;
7563;SDS011;3823;53.586;10.040;2024-01-30T12:41:40;20.00;;;12.57;;
7563;SDS011;3823;53.586;10.040;2024-01-30T12:44:06;19.60;;;11.85;;
7563;SDS011;3823;53.586;10.040;2024-01-30T12:46:33;16.23;;;12.73;;
7563;SDS011;3823;53.586;10.040;2024-01-30T12:48:59;22.85;;;12.40;;
7563;SDS011;3823;53.586;10.040;2024-01-30T12:51:25;17.25;;;11.50;;
7563;SDS011;3823;53.586;10.040;2024-01-30T12:53:50;19.10;;;11.27;;
7563;SDS011;3823;53.586;10.040;2024-01-30T12:56:16;16.38;;;11.13;;
7563;SDS011;3823;53.586;10.040;2024-01-30T12:58:42;15.73;;;10.25;;
7563;SDS011;3823;53.586;10.040;2024-01-30T13:01:08;14.18;;;10.75;;
7563;SDS011;3823;53.586;10.040;2024-01-30T13:03:33;14.10;;;10.23;;
7563;SDS011;3823;53.586;10.040;2024-01-30T13:05:59;13.57;;;9.80;;
7563;SDS011;3823;53.586;10.040;2024-01-30T13:08:24;15.80;;;11.10;;
7563;SDS011;3823;53.586;10.040;2024-01-30T13:10:50;13.70;;;10.63;;
7563;SDS011;3823;53.586;10.040;2024-01-30T13:13:16;16.30;;;11.48;;
7563;SDS011;3823;53.586;10.040;2024-01-30T13:15:42;13.23;;;9.50;;
7563;SDS011;3823;53.586;10.040;2024-01-30T13:18:07;13.68;;;10.30;;
7563;SDS011;3823;53.586;10.040;2024-01-30T13:20:33;10.50;;;9.27;;
7563;SDS011;3823;53.586;10.040;2024-01-30T13:22:58;18.13;;;9.85;;
7563;SDS011;3823;53.586;10.040;2024-01-30T13:25:24;16.52;;;10.05;;
7563;SDS011;3823;53.586;10.040;2024-01-30T13:27:49;15.75;;;11.93;;
7563;SDS011;3823;53.586;10.040;2024-01-30T13:30:15;13.52;;;9.95;;
7563;SDS011;3823;53.586;10.040;2024-01-30T13:32:41;20.20;;;11.02;;
7563;SDS011;3823;53.586;10.040;2024-01-30T13:35:09;14.18;;;10.35;;
7563;SDS011;3823;53.586;10.040;2024-01-30T13:37:34;16.17;;;11.07;;
7563;SDS011;3823;53.586;10.040;2024-01-30T13:40:01;15.82;;;10.57;;
7563;SDS011;3823;53.586;10.040;2024-01-30T13:42:28;14.93;;;10.80;;
7563;SDS011;3823;53.586;10.040;2024-01-30T13:44:53;20.05;;;10.85;;
7563;SDS011;3823;53.586;10.040;2024-01-30T13:47:19;12.60;;;10.30;;
7563;SDS011;3823;53.586;10.040;2024-01-30T13:49:46;13.45;;;10.32;;
7563;SDS011;3823;53.586;10.040;2024-01-30T13:52:12;13.75;;;9.77;;
7563;SDS011;3823;53.586;10.040;2024-01-30T13:54:38;17.30;;;9.68;;
7563;SDS011;3823;53.586;10.040;2024-01-30T13:57:03;15.60;;;10.23;;
7563;SDS011;3823;53.586;10.040;2024-01-30T13:59:29;16.02;;;10.77;;
7563;SDS011;3823;53.586;10.040;2024-01-30T14:01:55;16.42;;;11.35;;
7563;SDS011;3823;53.586;10.040;2024-01-30T14:04:20;16.65;;;10.70;;
7563;SDS011;3823;53.586;10.040;2024-01-30T14:06:46;15.20;;;10.80;;
7563;SDS011;3823;53.586;10.040;2024-01-30T14:09:12;17.58;;;10.48;;
7563;SDS011;3823;53.586;10.040;2024-01-30T14:11:40;15.65;;;10.13;;
7563;SDS011;3823;53.586;10.040;2024-01-30T14:14:06;17.77;;;11.07;;
7563;SDS011;3823;53.586;10.040;2024-01-30T14:16:32;16.05;;;10.18;;
7563;SDS011;3823;53.586;10.040;2024-01-30T14:18:57;16.70;;;10.00;;
7563;SDS011;3823;53.586;10.040;2024-01-30T14:21:23;13.63;;;9.32;;
7563;SDS011;3823;53.586;10.040;2024-01-30T14:23:49;13.18;;;9.48;;
7563;SDS011;3823;53.586;10.040;2024-01-30T14:26:14;20.52;;;10.75;;
7563;SDS011;3823;53.586;10.040;2024-01-30T14:28:40;17.83;;;10.80;;
7563;SDS011;3823;53.586;10.040;2024-01-30T14:31:06;16.83;;;10.27;;
7563;SDS011;3823;53.586;10.040;2024-01-30T14:33:32;20.80;;;10.85;;
7563;SDS011;3823;53.586;10.040;2024-01-30T14:35:57;18.42;;;12.18;;
7563;SDS011;3823;53.586;10.040;2024-01-30T14:38:23;18.33;;;10.70;;
7563;SDS011;3823;53.586;10.040;2024-01-30T14:40:50;16.80;;;11.07;;